Time;durP1;ratioP1;P1;durP2;ratioP2;P2;SDS_P1;SDS_P2;PMS_P1;PMS_P2;Temp;Humidity;BMP_temperature;BMP_pressure;BME280_temperature;BME280_humidity;BME280_pressure;Samples;Min_cycle;Max_cycle;Signal;HPM_P1;HPM_P2
2023/06/13 00:01:52;;;;;;;6.30;2.45;;;23.40;86.90;;;;;;6214359;23;20722;-77
2023/06/13 00:04:21;;;;;;;2.53;2.33;;;23.40;87.30;;;;;;6215064;23;20047;-77
2023/06/13 00:06:48;;;;;;;3.38;2.72;;;23.30;87.00;;;;;;6215925;23;20013;-77
2023/06/13 00:09:15;;;;;;;2.92;2.08;;;23.20;87.20;;;;;;6215601;23;20005;-77
2023/06/13 00:11:41;;;;;;;2.45;2.13;;;23.20;87.10;;;;;;6215190;23;20024;-77
2023/06/13 00:14:10;;;;;;;3.00;2.30;;;23.10;87.00;;;;;;6215419;23;20027;-76
2023/06/13 00:16:38;;;;;;;2.92;2.63;;;23.10;87.30;;;;;;6215040;23;20028;-77
2023/06/13 00:19:04;;;;;;;4.50;2.90;;;23.10;87.50;;;;;;6215263;23;20020;-77
2023/06/13 00:21:32;;;;;;;4.32;2.45;;;23.00;88.10;;;;;;6212974;23;20001;-77
2023/06/13 00:23:58;;;;;;;3.38;2.63;;;22.90;87.90;;;;;;6214738;23;20001;-77
2023/06/13 00:26:23;;;;;;;2.83;2.20;;;22.90;88.20;;;;;;6215086;23;20008;-77
2023/06/13 00:28:49;;;;;;;5.25;2.63;;;22.90;88.10;;;;;;6215234;23;20080;-76
2023/06/13 00:31:16;;;;;;;3.25;2.33;;;22.80;89.00;;;;;;6214463;23;20000;-77
2023/06/13 00:33:43;;;;;;;3.25;2.08;;;22.80;89.10;;;;;;6215182;23;20004;-76
2023/06/13 00:36:14;;;;;;;2.45;2.00;;;22.80;89.40;;;;;;6215136;23;20415;-77
2023/06/13 00:38:40;;;;;;;3.80;2.30;;;22.70;89.30;;;;;;6215151;23;20478;-77
2023/06/13 00:41:05;;;;;;;2.90;2.45;;;22.70;89.40;;;;;;6214932;23;20039;-77
2023/06/13 00:43:32;;;;;;;3.53;2.00;;;22.70;89.60;;;;;;6215000;23;20005;-77
2023/06/13 00:46:00;;;;;;;2.17;1.95;;;22.60;89.50;;;;;;6215230;23;20001;-77
2023/06/13 00:48:27;;;;;;;3.35;2.05;;;22.50;89.70;;;;;;6215381;23;20000;-77
2023/06/13 00:50:54;;;;;;;3.63;2.08;;;22.40;89.70;;;;;;6215026;23;20354;-76
2023/06/13 00:53:21;;;;;;;3.50;2.38;;;22.40;89.80;;;;;;6215043;23;20004;-76
2023/06/13 00:55:49;;;;;;;2.17;1.80;;;22.40;90.20;;;;;;6215152;23;20441;-76
2023/06/13 00:58:16;;;;;;;2.63;2.22;;;22.30;90.00;;;;;;6215116;23;20004;-77
2023/06/13 01:00:45;;;;;;;2.38;2.05;;;22.30;90.00;;;;;;6214746;23;20423;-76
2023/06/13 01:03:15;;;;;;;2.27;2.07;;;22.30;90.00;;;;;;6215380;23;20004;-76
2023/06/13 01:05:45;;;;;;;2.75;2.40;;;22.30;89.90;;;;;;6214449;23;20007;-76
2023/06/13 01:08:19;;;;;;;;;;;22.30;90.00;;;;;;6215394;23;20024;-77
2023/06/13 01:10:59;;;;;;;4.45;2.75;;;22.20;89.90;;;;;;6214951;23;19900;-77
2023/06/13 01:13:43;;;;;;;5.22;2.85;;;22.20;90.10;;;;;;6213766;23;20009;-77
2023/06/13 01:16:25;;;;;;;3.95;2.97;;;22.20;90.00;;;;;;6215705;23;20028;-77
2023/06/13 01:18:53;;;;;;;2.42;2.10;;;22.10;90.00;;;;;;6217101;23;20034;-77
2023/06/13 01:21:20;;;;;;;2.97;2.30;;;22.10;90.00;;;;;;6216549;23;20007;-77
2023/06/13 01:24:02;;;;;;;2.92;2.58;;;22.10;90.00;;;;;;6216269;23;20008;-76
2023/06/13 01:26:52;;;;;;;6.95;3.67;;;22.10;90.10;;;;;;6216958;23;20004;-76
2023/06/13 01:29:19;;;;;;;;;;;22.10;90.30;;;;;;6217527;23;20416;-76
2023/06/13 01:31:48;;;;;;;4.68;2.53;;;22.00;90.20;;;;;;6215693;23;19903;-76
2023/06/13 01:34:14;;;;;;;6.00;3.70;;;22.00;90.20;;;;;;6216394;23;20005;-76
2023/06/13 01:36:40;;;;;;;3.67;3.08;;;22.00;90.30;;;;;;6214734;23;20443;-76
2023/06/13 01:39:07;;;;;;;3.03;2.47;;;21.90;90.40;;;;;;6216856;23;20035;-76
2023/06/13 01:41:33;;;;;;;2.50;2.30;;;21.90;90.40;;;;;;6216012;23;20083;-77
2023/06/13 01:44:00;;;;;;;2.85;2.55;;;21.90;90.30;;;;;;6216962;23;20446;-76
2023/06/13 01:46:30;;;;;;;6.15;2.70;;;21.90;90.20;;;;;;6216754;23;20000;-76
2023/06/13 01:49:38;;;;;;;3.67;2.50;;;21.90;90.30;;;;;;6215232;23;19997;-76
2023/06/13 01:52:21;;;;;;;4.20;2.85;;;22.00;90.20;;;;;;6216218;23;20004;-76
2023/06/13 01:54:55;;;;;;;2.75;2.33;;;22.00;90.00;;;;;;6216542;23;20007;-76
2023/06/13 01:57:41;;;;;;;3.47;2.83;;;22.00;90.00;;;;;;6216058;23;20047;-76
2023/06/13 02:00:09;;;;;;;2.80;2.20;;;22.00;89.90;;;;;;6216790;23;20004;-76
2023/06/13 02:02:35;;;;;;;5.20;2.60;;;22.00;89.60;;;;;;6216171;23;20043;-76
2023/06/13 02:05:01;;;;;;;3.83;2.58;;;22.00;89.70;;;;;;6216136;23;20079;-76
2023/06/13 02:07:28;;;;;;;2.90;2.55;;;22.00;89.70;;;;;;6216292;23;20039;-76
2023/06/13 02:09:54;;;;;;;2.67;2.33;;;22.00;88.80;;;;;;6216491;23;20008;-76
2023/06/13 02:12:19;;;;;;;2.88;2.42;;;21.90;88.80;;;;;;6215941;23;20004;-76
2023/06/13 02:14:45;;;;;;;2.28;2.03;;;22.00;88.80;;;;;;6216361;23;20036;-77
2023/06/13 02:17:12;;;;;;;3.25;2.50;;;21.90;88.60;;;;;;6215277;23;20005;-76
2023/06/13 02:19:37;;;;;;;3.08;2.33;;;22.00;88.90;;;;;;6216119;23;20063;-77
2023/06/13 02:22:03;;;;;;;2.72;2.30;;;21.90;88.80;;;;;;6214171;23;20008;-76
2023/06/13 02:24:29;;;;;;;3.08;2.35;;;21.90;88.50;;;;;;6216227;23;19996;-76
2023/06/13 02:26:55;;;;;;;7.68;2.40;;;21.90;88.50;;;;;;6216143;23;20005;-76
2023/06/13 02:29:20;;;;;;;5.78;2.97;;;21.80;88.20;;;;;;6216283;23;20032;-76
2023/06/13 02:31:46;;;;;;;3.15;2.17;;;21.90;88.30;;;;;;6215921;23;20110;-76
2023/06/13 02:34:12;;;;;;;3.55;2.40;;;21.90;88.10;;;;;;6216204;23;20000;-76
2023/06/13 02:36:37;;;;;;;2.72;2.38;;;21.90;88.20;;;;;;6215832;23;20004;-76
2023/06/13 02:39:03;;;;;;;2.83;2.13;;;22.00;88.00;;;;;;6216329;23;20057;-76
2023/06/13 02:41:29;;;;;;;4.93;2.03;;;22.00;87.50;;;;;;6215948;23;20004;-76
2023/06/13 02:43:55;;;;;;;6.80;2.58;;;22.00;86.90;;;;;;6216157;23;20007;-76
2023/06/13 02:46:21;;;;;;;3.58;2.05;;;22.00;86.60;;;;;;6216348;23;20079;-76
2023/06/13 02:48:46;;;;;;;4.15;2.20;;;21.90;86.00;;;;;;6216290;23;20008;-76
2023/06/13 02:51:13;;;;;;;5.15;2.38;;;21.90;85.80;;;;;;6216295;23;20005;-76
2023/06/13 02:53:38;;;;;;;5.15;2.10;;;21.80;85.70;;;;;;6214536;23;20008;-76
2023/06/13 02:56:04;;;;;;;2.08;1.88;;;21.70;85.70;;;;;;6215759;23;19997;-77
2023/06/13 02:58:30;;;;;;;3.25;2.20;;;21.70;85.70;;;;;;6215854;23;20079;-76
2023/06/13 03:00:56;;;;;;;3.55;2.25;;;21.70;85.60;;;;;;6216179;23;20059;-76
2023/06/13 03:03:23;;;;;;;4.22;2.00;;;21.70;85.70;;;;;;6216032;23;20431;-77
2023/06/13 03:05:49;;;;;;;2.60;2.10;;;21.70;85.80;;;;;;6215870;23;20000;-77
2023/06/13 03:08:18;;;;;;;4.10;1.98;;;21.70;85.50;;;;;;6215656;23;20415;-76
2023/06/13 03:10:48;;;;;;;9.90;2.47;;;21.70;84.70;;;;;;6216575;23;20000;-76
2023/06/13 03:13:16;;;;;;;2.00;1.80;;;21.70;84.80;;;;;;6215817;23;20054;-76
2023/06/13 03:15:45;;;;;;;2.28;1.95;;;21.60;84.50;;;;;;6215762;23;20011;-76
2023/06/13 03:18:11;;;;;;;2.77;2.10;;;21.60;84.80;;;;;;6215583;23;20020;-76
2023/06/13 03:20:37;;;;;;;2.63;2.10;;;21.60;85.00;;;;;;6216040;23;20001;-76
2023/06/13 03:23:03;;;;;;;4.78;2.53;;;21.60;85.10;;;;;;6215384;23;20001;-76
2023/06/13 03:25:29;;;;;;;5.43;2.10;;;21.70;85.00;;;;;;6215843;23;20022;-76
2023/06/13 03:27:55;;;;;;;3.63;1.98;;;21.60;85.00;;;;;;6216023;23;20005;-76
2023/06/13 03:30:21;;;;;;;3.92;2.40;;;21.60;84.80;;;;;;6216050;23;20011;-76
2023/06/13 03:32:47;;;;;;;2.63;2.05;;;21.60;84.70;;;;;;6215438;23;20012;-76
2023/06/13 03:35:12;;;;;;;2.35;2.15;;;21.60;84.50;;;;;;6215565;23;20004;-76
2023/06/13 03:37:38;;;;;;;2.28;1.85;;;21.60;84.80;;;;;;6215352;23;20005;-76
2023/06/13 03:40:04;;;;;;;3.15;2.03;;;21.60;84.60;;;;;;6215612;23;20024;-76
2023/06/13 03:42:30;;;;;;;2.17;1.73;;;21.60;84.40;;;;;;6215621;23;20001;-76
2023/06/13 03:44:56;;;;;;;2.63;2.10;;;21.60;84.30;;;;;;6215595;23;20031;-76
2023/06/13 03:47:22;;;;;;;3.75;2.50;;;21.60;84.20;;;;;;6215656;23;20311;-76
2023/06/13 03:49:47;;;;;;;2.80;2.08;;;21.60;84.20;;;;;;6215025;23;20328;-76
2023/06/13 03:52:13;;;;;;;2.30;2.08;;;21.60;84.80;;;;;;6214646;23;20076;-76
2023/06/13 03:54:39;;;;;;;4.07;2.10;;;21.60;84.30;;;;;;6215856;23;20000;-76
2023/06/13 03:57:06;;;;;;;2.65;2.05;;;21.70;84.40;;;;;;6215238;23;20008;-75
2023/06/13 03:59:33;;;;;;;2.80;1.92;;;21.70;84.00;;;;;;6215291;23;20000;-75
2023/06/13 04:01:59;;;;;;;2.60;1.90;;;21.60;83.90;;;;;;6214778;23;20000;-75
2023/06/13 04:04:26;;;;;;;3.53;2.05;;;21.60;83.90;;;;;;6215197;23;20000;-76
2023/06/13 04:06:53;;;;;;;3.13;2.13;;;21.60;84.10;;;;;;6215336;23;20000;-76
2023/06/13 04:09:19;;;;;;;2.42;2.10;;;21.60;84.30;;;;;;6215722;23;20011;-76
2023/06/13 04:11:44;;;;;;;4.82;2.20;;;21.70;84.20;;;;;;6215861;23;20024;-76
2023/06/13 04:14:10;;;;;;;3.83;2.13;;;21.70;84.70;;;;;;6215594;23;20123;-76
2023/06/13 04:16:36;;;;;;;2.35;2.08;;;21.80;84.20;;;;;;6215363;23;20323;-76
2023/06/13 04:19:01;;;;;;;3.25;2.60;;;21.80;84.20;;;;;;6214947;23;20064;-76
2023/06/13 04:21:27;;;;;;;2.88;2.28;;;21.70;84.00;;;;;;6215054;23;20001;-76
2023/06/13 04:23:53;;;;;;;2.95;1.90;;;21.70;84.20;;;;;;6215234;23;20061;-75
2023/06/13 04:26:20;;;;;;;3.58;2.25;;;21.70;84.30;;;;;;6215849;23;20060;-76
2023/06/13 04:28:47;;;;;;;3.55;2.50;;;21.70;84.50;;;;;;6214861;23;20056;-77
2023/06/13 04:31:14;;;;;;;6.25;2.58;;;21.70;84.60;;;;;;6215602;23;20079;-77
2023/06/13 04:33:41;;;;;;;5.72;2.15;;;21.70;84.50;;;;;;6214408;23;20020;-76
2023/06/13 04:36:08;;;;;;;3.63;1.92;;;21.70;84.80;;;;;;6215199;23;20304;-76
2023/06/13 04:38:35;;;;;;;8.13;2.60;;;21.70;84.70;;;;;;6215404;23;20084;-76
2023/06/13 04:41:01;;;;;;;1.98;1.77;;;21.60;84.50;;;;;;6215691;23;20047;-75
2023/06/13 04:43:33;;;;;;;3.75;2.50;;;21.50;84.80;;;;;;6214850;23;20005;-76
2023/06/13 04:46:03;;;;;;;2.75;1.95;;;21.50;85.10;;;;;;6215278;23;20031;-76
2023/06/13 04:48:30;;;;;;;2.65;2.10;;;21.50;85.00;;;;;;6215602;23;20031;-76
2023/06/13 04:50:59;;;;;;;3.40;2.38;;;21.40;85.10;;;;;;6215030;23;20079;-75
2023/06/13 04:53:26;;;;;;;4.28;1.85;;;21.40;85.10;;;;;;6217005;23;20407;-75
2023/06/13 04:55:52;;;;;;;5.07;1.83;;;21.50;85.20;;;;;;6216957;23;20392;-76
2023/06/13 04:58:18;;;;;;;2.58;1.98;;;21.50;85.10;;;;;;6215455;23;20394;-76
2023/06/13 05:00:48;;;;;;;3.28;1.75;;;21.50;85.10;;;;;;6217374;23;20000;-77
2023/06/13 05:03:18;;;;;;;5.28;1.88;;;21.50;85.10;;;;;;6216636;23;20346;-77
2023/06/13 05:05:47;;;;;;;2.47;1.85;;;21.50;85.00;;;;;;6216794;23;20025;-77
2023/06/13 05:08:19;;;;;;;2.88;2.10;;;21.50;85.10;;;;;;6216727;23;20433;-76
2023/06/13 05:10:45;;;;;;;2.10;1.90;;;21.50;84.80;;;;;;6216805;23;20439;-76
2023/06/13 05:13:11;;;;;;;2.97;2.10;;;21.50;84.90;;;;;;6216513;23;20001;-76
2023/06/13 05:15:38;;;;;;;2.08;1.75;;;21.50;84.80;;;;;;6216198;23;20040;-76
2023/06/13 05:18:06;;;;;;;3.47;2.50;;;21.50;85.00;;;;;;6215946;23;20985;-76
2023/06/13 05:20:33;;;;;;;4.13;2.10;;;21.40;85.10;;;;;;6216676;23;20035;-76
2023/06/13 05:23:00;;;;;;;2.70;2.00;;;21.50;85.30;;;;;;6216749;23;20001;-76
2023/06/13 05:25:26;;;;;;;2.00;1.75;;;21.50;85.20;;;;;;6212998;23;20004;-77
2023/06/13 05:27:51;;;;;;;3.20;2.15;;;21.50;85.20;;;;;;6215918;23;20331;-79
2023/06/13 05:30:17;;;;;;;6.00;2.83;;;21.50;85.40;;;;;;6216366;23;20004;-76
2023/06/13 05:32:43;;;;;;;2.53;2.08;;;21.50;85.50;;;;;;6215877;23;20422;-76
2023/06/13 05:35:09;;;;;;;7.22;2.22;;;21.50;85.40;;;;;;6213558;23;20005;-76
2023/06/13 05:37:38;;;;;;;2.63;2.17;;;21.50;85.60;;;;;;6214620;23;20342;-76
2023/06/13 05:40:06;;;;;;;2.47;2.28;;;21.50;85.50;;;;;;6215413;23;20029;-76
2023/06/13 05:42:34;;;;;;;3.40;2.17;;;21.50;85.60;;;;;;6214875;23;19997;-76
2023/06/13 05:45:05;;;;;;;2.40;2.05;;;21.50;85.50;;;;;;6214852;23;20051;-76
2023/06/13 05:47:31;;;;;;;2.67;2.05;;;21.40;85.40;;;;;;6216354;23;20043;-76
2023/06/13 05:49:57;;;;;;;3.38;2.35;;;21.40;85.50;;;;;;6216261;23;20005;-76
2023/06/13 05:52:23;;;;;;;3.47;2.15;;;21.40;85.50;;;;;;6215711;23;20079;-81
2023/06/13 05:54:49;;;;;;;2.60;2.20;;;21.50;85.60;;;;;;6215578;23;20027;-77
2023/06/13 05:57:15;;;;;;;3.90;2.10;;;21.50;85.60;;;;;;6214204;23;20087;-76
2023/06/13 05:59:41;;;;;;;3.97;2.50;;;21.50;85.50;;;;;;6216334;23;20425;-77
2023/06/13 06:02:09;;;;;;;3.58;2.08;;;21.50;85.60;;;;;;6216327;23;20001;-77
2023/06/13 06:04:35;;;;;;;3.88;2.30;;;21.50;85.90;;;;;;6213561;23;20005;-79
2023/06/13 06:07:01;;;;;;;2.95;2.42;;;21.50;86.30;;;;;;6215231;23;20000;-77
2023/06/13 06:09:26;;;;;;;2.83;2.25;;;21.60;86.60;;;;;;6214713;23;20000;-82
2023/06/13 06:11:52;;;;;;;3.63;2.22;;;21.60;86.60;;;;;;6214454;23;20005;-78
2023/06/13 06:14:18;;;;;;;4.10;2.20;;;21.60;86.80;;;;;;6213568;23;20497;-78
2023/06/13 06:16:44;;;;;;;4.07;3.03;;;21.60;87.20;;;;;;6214752;23;20000;-78
2023/06/13 06:19:10;;;;;;;6.05;2.67;;;21.70;87.90;;;;;;6215834;23;20020;-78
2023/06/13 06:21:35;;;;;;;3.85;2.50;;;21.70;87.90;;;;;;6213954;23;20024;-77
2023/06/13 06:24:01;;;;;;;5.88;2.40;;;21.70;88.10;;;;;;6215956;23;20005;-78
2023/06/13 06:26:27;;;;;;;4.85;2.50;;;21.60;88.60;;;;;;6211594;23;20008;-78
2023/06/13 06:28:53;;;;;;;3.33;2.78;;;21.60;89.10;;;;;;6213826;23;20011;-78
2023/06/13 06:31:18;;;;;;;4.43;2.53;;;21.70;89.90;;;;;;6213318;23;20000;-78
2023/06/13 06:33:44;;;;;;;4.15;2.63;;;21.70;90.00;;;;;;6215266;23;20065;-78
2023/06/13 06:36:10;;;;;;;3.67;2.33;;;21.70;89.30;;;;;;6215158;23;20307;-78
2023/06/13 06:38:36;;;;;;;2.80;2.30;;;21.70;89.40;;;;;;6215414;23;20015;-78
2023/06/13 06:41:01;;;;;;;4.50;2.17;;;21.70;90.00;;;;;;6216116;23;20070;-79
2023/06/13 06:43:27;;;;;;;4.78;2.50;;;21.70;90.00;;;;;;6215805;23;20008;-78
2023/06/13 06:45:53;;;;;;;3.50;2.50;;;21.80;90.10;;;;;;6215388;23;20011;-77
2023/06/13 06:48:18;;;;;;;3.60;2.95;;;21.80;90.20;;;;;;6215183;23;20437;-78
2023/06/13 06:50:44;;;;;;;3.60;2.63;;;21.80;90.30;;;;;;6216011;23;20000;-77
2023/06/13 06:53:10;;;;;;;4.07;2.75;;;21.80;90.20;;;;;;6216212;23;20035;-77
2023/06/13 06:55:35;;;;;;;2.95;2.65;;;21.90;90.30;;;;;;6215624;23;20036;-77
2023/06/13 06:58:01;;;;;;;3.35;2.35;;;21.90;90.10;;;;;;6213964;23;20011;-76
2023/06/13 07:00:27;;;;;;;3.53;2.83;;;21.90;90.00;;;;;;6215349;23;20044;-78
2023/06/13 07:02:54;;;;;;;3.33;2.60;;;22.00;90.10;;;;;;6215298;23;20000;-77
2023/06/13 07:05:23;;;;;;;5.13;2.10;;;22.00;90.10;;;;;;6211998;23;20035;-79
2023/06/13 07:07:48;;;;;;;2.63;2.40;;;22.10;90.00;;;;;;6212180;23;20015;-79
2023/06/13 07:10:14;;;;;;;3.47;2.00;;;22.10;89.90;;;;;;6213650;23;20028;-77
2023/06/13 07:12:41;;;;;;;3.13;2.20;;;22.30;89.30;;;;;;6214243;23;20383;-78
2023/06/13 07:15:07;;;;;;;4.43;2.42;;;22.30;88.40;;;;;;6212874;23;20012;-78
2023/06/13 07:17:33;;;;;;;3.03;2.35;;;22.40;88.10;;;;;;6212752;23;20526;-78
2023/06/13 07:20:05;;;;;;;3.00;2.30;;;22.40;87.50;;;;;;6211101;23;20017;-78
2023/06/13 07:22:31;;;;;;;2.25;2.05;;;22.50;86.50;;;;;;6214050;23;19997;-78
2023/06/13 07:24:56;;;;;;;2.53;1.83;;;22.50;86.70;;;;;;6213317;23;20327;-78
2023/06/13 07:27:22;;;;;;;2.80;2.20;;;22.50;86.20;;;;;;6211937;23;20035;-78
2023/06/13 07:29:48;;;;;;;3.05;2.20;;;22.60;86.10;;;;;;6211660;23;20012;-78
2023/06/13 07:32:13;;;;;;;3.35;2.22;;;22.70;86.10;;;;;;6213039;23;20018;-79
2023/06/13 07:34:39;;;;;;;3.03;2.17;;;22.80;86.00;;;;;;6211086;23;20013;-78
2023/06/13 07:37:05;;;;;;;2.65;2.17;;;22.90;85.70;;;;;;6213411;23;20063;-80
2023/06/13 07:39:31;;;;;;;2.50;2.00;;;22.90;85.70;;;;;;6213409;23;20056;-80
2023/06/13 07:41:58;;;;;;;3.58;2.13;;;23.00;84.20;;;;;;6213696;23;20119;-78
2023/06/13 07:44:24;;;;;;;3.85;2.40;;;23.00;84.20;;;;;;6213505;23;20001;-79
2023/06/13 07:46:50;;;;;;;3.50;2.38;;;23.00;83.20;;;;;;6214208;23;20359;-79
2023/06/13 07:49:16;;;;;;;3.55;2.30;;;22.90;83.00;;;;;;6212836;23;20054;-80
2023/06/13 07:51:43;;;;;;;10.57;2.75;;;22.90;83.80;;;;;;6211564;23;20008;-79
2023/06/13 07:54:08;;;;;;;17.15;3.03;;;23.00;84.00;;;;;;6211907;23;20116;-79
2023/06/13 07:56:34;;;;;;;9.05;2.58;;;23.10;83.70;;;;;;6214187;23;20005;-79
2023/06/13 07:59:00;;;;;;;15.50;3.88;;;23.10;83.30;;;;;;6213585;23;20008;-78
2023/06/13 08:01:26;;;;;;;5.93;2.97;;;23.10;83.00;;;;;;6211220;23;20000;-79
2023/06/13 08:03:52;;;;;;;15.73;3.53;;;23.10;82.80;;;;;;6209672;23;20003;-78
2023/06/13 08:06:18;;;;;;;2.95;2.30;;;23.20;81.90;;;;;;6211064;23;20019;-78
2023/06/13 08:08:43;;;;;;;3.00;2.10;;;23.10;82.30;;;;;;6214425;23;20051;-79
2023/06/13 08:11:10;;;;;;;4.15;2.60;;;23.10;82.30;;;;;;6212251;23;20307;-79
2023/06/13 08:13:36;;;;;;;3.67;2.65;;;23.10;82.00;;;;;;6212615;23;20040;-79
2023/06/13 08:16:02;;;;;;;6.38;2.40;;;23.10;82.40;;;;;;6212872;23;20012;-78
2023/06/13 08:18:28;;;;;;;3.45;2.10;;;23.00;82.60;;;;;;6212004;23;20024;-77
2023/06/13 08:20:53;;;;;;;3.10;2.08;;;23.00;83.00;;;;;;6214485;23;20009;-76
2023/06/13 08:23:19;;;;;;;3.13;2.15;;;23.00;83.00;;;;;;6213791;23;20005;-78
2023/06/13 08:25:46;;;;;;;4.47;2.20;;;22.90;82.90;;;;;;6214855;23;20025;-77
2023/06/13 08:28:13;;;;;;;4.15;2.10;;;22.90;82.80;;;;;;6214884;23;20009;-78
2023/06/13 08:30:39;;;;;;;4.45;2.88;;;22.80;83.20;;;;;;6216587;23;20024;-77
2023/06/13 08:33:08;;;;;;;2.65;2.30;;;22.80;83.20;;;;;;6216844;23;20001;-77
2023/06/13 08:35:34;;;;;;;3.38;2.08;;;22.80;83.20;;;;;;6216015;23;20024;-79
2023/06/13 08:38:03;;;;;;;2.67;2.08;;;22.70;82.60;;;;;;6214003;23;20011;-79
2023/06/13 08:40:29;;;;;;;4.25;2.25;;;22.70;83.20;;;;;;6216927;23;19997;-78
2023/06/13 08:43:00;;;;;;;3.22;2.40;;;22.70;83.10;;;;;;6216103;23;20008;-77
2023/06/13 08:45:26;;;;;;;3.47;2.58;;;22.80;83.50;;;;;;6217233;23;20027;-79
2023/06/13 08:47:53;;;;;;;4.43;2.47;;;22.90;83.30;;;;;;6214837;23;20322;-79
2023/06/13 08:50:23;;;;;;;4.53;2.17;;;23.00;83.00;;;;;;6216481;23;20004;-79
2023/06/13 08:52:50;;;;;;;3.38;2.30;;;23.10;82.70;;;;;;6214369;23;20450;-80
2023/06/13 08:55:21;;;;;;;4.47;2.10;;;23.30;81.40;;;;;;6215864;23;20012;-79
2023/06/13 08:57:52;;;;;;;2.60;1.95;;;23.40;81.10;;;;;;6215590;23;20358;-78
2023/06/13 09:00:19;;;;;;;2.10;1.88;;;23.60;80.70;;;;;;6217808;23;20058;-77
2023/06/13 09:02:46;;;;;;;4.72;2.10;;;23.70;80.30;;;;;;6218209;23;20075;-79
2023/06/13 09:05:15;;;;;;;2.05;1.83;;;23.80;79.40;;;;;;6214904;23;20099;-78
2023/06/13 09:07:46;;;;;;;3.72;2.60;;;24.00;79.60;;;;;;6205866;23;20004;-78
2023/06/13 09:10:12;;;;;;;3.83;1.88;;;24.10;78.40;;;;;;6217879;23;20381;-78
2023/06/13 09:12:46;;;;;;;6.15;1.95;;;24.20;78.70;;;;;;6205575;23;20016;-78
2023/06/13 09:15:11;;;;;;;3.22;2.15;;;24.40;78.00;;;;;;6217717;23;20076;-78
2023/06/13 09:17:39;;;;;;;2.92;2.15;;;24.40;76.80;;;;;;6217835;23;20044;-80
2023/06/13 09:20:07;;;;;;;4.78;2.13;;;24.50;76.20;;;;;;6216557;23;20415;-79
2023/06/13 09:22:35;;;;;;;2.65;2.28;;;24.50;76.10;;;;;;6210316;23;20040;-80
2023/06/13 09:25:04;;;;;;;3.38;2.60;;;24.50;76.20;;;;;;6212562;23;20000;-79
2023/06/13 09:27:30;;;;;;;2.40;2.17;;;24.50;76.30;;;;;;6218118;23;20004;-77
2023/06/13 09:29:59;;;;;;;3.15;2.40;;;24.40;76.20;;;;;;6217966;23;20011;-77
2023/06/13 09:32:25;;;;;;;3.50;2.15;;;24.40;76.80;;;;;;6217797;23;20454;-77
2023/06/13 09:34:51;;;;;;;5.32;2.30;;;24.40;76.60;;;;;;6217716;23;20000;-77
2023/06/13 09:37:18;;;;;;;2.75;1.90;;;24.40;75.80;;;;;;6216409;23;20009;-76
2023/06/13 09:39:51;;;;;;;4.43;1.80;;;24.40;76.40;;;;;;6217275;23;20027;-76
2023/06/13 09:42:23;;;;;;;2.38;2.00;;;24.40;77.00;;;;;;6217024;23;20004;-77
2023/06/13 09:44:52;;;;;;;5.13;2.03;;;24.50;77.30;;;;;;6214037;23;20001;-76
2023/06/13 09:47:23;;;;;;;3.35;2.10;;;24.60;76.20;;;;;;6215029;23;20012;-78
2023/06/13 09:49:57;;;;;;;3.03;2.15;;;24.60;74.40;;;;;;6214534;23;20015;-77
2023/06/13 09:52:27;;;;;;;3.80;1.90;;;24.80;74.70;;;;;;6214874;23;20083;-77
2023/06/13 09:54:53;;;;;;;2.40;2.00;;;24.90;74.40;;;;;;6215861;23;20304;-78
2023/06/13 09:57:22;;;;;;;2.28;1.85;;;25.10;73.90;;;;;;6216551;23;20001;-77
2023/06/13 09:59:51;;;;;;;2.78;1.70;;;25.30;73.40;;;;;;6216653;23;20043;-78
2023/06/13 10:02:20;;;;;;;2.58;1.75;;;25.40;72.00;;;;;;6216829;23;20024;-76
2023/06/13 10:04:50;;;;;;;3.92;2.30;;;25.50;72.30;;;;;;6214631;23;20004;-76
2023/06/13 10:07:16;;;;;;;3.55;2.15;;;25.50;72.60;;;;;;6215801;23;20004;-75
2023/06/13 10:09:41;;;;;;;4.57;1.70;;;25.50;71.90;;;;;;6215602;23;20004;-80
2023/06/13 10:12:18;;;;;;;2.15;1.90;;;25.60;72.10;;;;;;6216199;23;20004;-78
2023/06/13 10:14:50;;;;;;;4.18;1.85;;;25.60;71.30;;;;;;6216294;23;20094;-78
2023/06/13 10:17:18;;;;;;;7.45;1.95;;;25.80;71.10;;;;;;6215311;23;20008;-78
2023/06/13 10:19:46;;;;;;;2.00;1.80;;;25.80;69.80;;;;;;6216122;23;20071;-78
2023/06/13 10:22:12;;;;;;;1.63;1.45;;;25.80;69.50;;;;;;6214293;23;20004;-78
2023/06/13 10:24:40;;;;;;;3.33;1.77;;;25.80;69.50;;;;;;6202928;23;20012;-78
2023/06/13 10:27:08;;;;;;;4.50;2.20;;;25.80;68.00;;;;;;6214479;23;20334;-78
2023/06/13 10:30:04;;;;;;;2.25;1.77;;;25.80;67.50;;;;;;6216918;23;20000;-78
2023/06/13 10:32:51;;;;;;;2.60;1.73;;;25.70;67.60;;;;;;6211944;23;20005;-78
2023/06/13 10:35:35;;;;;;;2.92;2.00;;;25.70;69.40;;;;;;6215970;23;20005;-80
2023/06/13 10:38:48;;;;;;;2.97;1.80;;;25.60;69.10;;;;;;6214339;23;20009;-79
2023/06/13 10:41:51;;;;;;;3.13;2.08;;;25.60;70.50;;;;;;6216325;23;20074;-79
2023/06/13 10:44:22;;;;;;;2.83;2.00;;;25.70;70.20;;;;;;6215815;23;20020;-77
2023/06/13 10:46:48;;;;;;;2.10;1.90;;;25.60;69.80;;;;;;6215956;23;20001;-78
2023/06/13 10:49:17;;;;;;;2.85;2.17;;;25.70;70.20;;;;;;6215711;23;20031;-77
2023/06/13 10:51:45;;;;;;;2.83;2.10;;;25.70;69.70;;;;;;6215227;23;20368;-77
2023/06/13 10:54:12;;;;;;;2.35;1.50;;;25.80;68.60;;;;;;6216038;23;20023;-77
2023/06/13 10:56:41;;;;;;;3.90;1.58;;;25.90;69.40;;;;;;6215235;23;20036;-77
2023/06/13 10:59:09;;;;;;;3.65;2.80;;;26.20;69.40;;;;;;6215506;23;20087;-79
2023/06/13 11:01:37;;;;;;;7.10;2.42;;;26.50;66.80;;;;;;6214762;23;20024;-78
2023/06/13 11:04:08;;;;;;;1.98;1.70;;;26.70;67.90;;;;;;6214061;23;20000;-77
2023/06/13 11:06:35;;;;;;;18.63;2.17;;;26.80;67.70;;;;;;6214311;23;20003;-77
2023/06/13 11:09:25;;;;;;;1.88;1.67;;;26.80;67.20;;;;;;6213687;23;20411;-77
2023/06/13 11:11:56;;;;;;;4.00;2.00;;;26.80;66.90;;;;;;6212523;23;20039;-76
2023/06/13 11:14:27;;;;;;;4.07;1.73;;;26.70;66.40;;;;;;6216656;23;20431;-78
2023/06/13 11:16:54;;;;;;;2.97;1.67;;;26.70;66.50;;;;;;6216462;23;20012;-77
2023/06/13 11:19:25;;;;;;;2.42;1.77;;;26.70;66.50;;;;;;6214368;23;20009;-77
2023/06/13 11:21:59;;;;;;;2.33;1.92;;;26.70;66.40;;;;;;6215408;23;20079;-77
2023/06/13 11:24:29;;;;;;;3.83;2.10;;;26.70;67.20;;;;;;6214346;23;20051;-77
2023/06/13 11:26:59;;;;;;;3.60;1.90;;;26.80;66.00;;;;;;6215604;23;20004;-79
2023/06/13 11:29:26;;;;;;;2.13;1.73;;;26.80;66.30;;;;;;6214555;23;20001;-79
2023/06/13 11:31:53;;;;;;;3.35;1.67;;;26.90;66.10;;;;;;6213671;23;20288;-79
2023/06/13 11:34:24;;;;;;;3.35;1.80;;;27.00;65.90;;;;;;6214702;23;20001;-79
2023/06/13 11:36:57;;;;;;;3.92;2.20;;;27.20;66.10;;;;;;6214760;23;20510;-78
2023/06/13 11:39:39;;;;;;;9.88;2.20;;;27.30;64.60;;;;;;6215768;23;20003;-78
2023/06/13 11:42:06;;;;;;;3.55;1.98;;;27.30;65.70;;;;;;6215134;23;20238;-80
2023/06/13 11:44:32;;;;;;;11.32;2.08;;;27.40;65.40;;;;;;6215160;23;20028;-78
2023/06/13 11:46:58;;;;;;;2.28;1.60;;;27.50;65.10;;;;;;6215130;23;20005;-79
2023/06/13 11:49:24;;;;;;;2.30;2.10;;;27.60;65.40;;;;;;6215447;23;20004;-77
2023/06/13 11:51:49;;;;;;;2.90;2.08;;;27.70;65.40;;;;;;6215657;23;20001;-77
2023/06/13 11:54:15;;;;;;;3.45;1.70;;;27.70;65.80;;;;;;6214680;23;20000;-77
2023/06/13 11:56:51;;;;;;;3.70;2.05;;;27.80;65.70;;;;;;6211772;23;20309;-76
2023/06/13 11:59:20;;;;;;;2.78;1.85;;;27.80;64.60;;;;;;6212696;23;20112;-77
2023/06/13 12:01:52;;;;;;;2.25;1.60;;;27.90;64.70;;;;;;6213673;23;20024;-76
2023/06/13 12:04:28;;;;;;;3.03;2.20;;;27.90;64.80;;;;;;6213289;23;20001;-76
2023/06/13 12:06:54;;;;;;;4.22;1.95;;;28.00;64.80;;;;;;6213144;23;20424;-77
2023/06/13 12:09:21;;;;;;;2.35;1.92;;;28.40;64.60;;;;;;6211640;23;20012;-77
2023/06/13 12:11:47;;;;;;;7.45;2.33;;;29.00;63.10;;;;;;6212557;23;20009;-78
2023/06/13 12:14:13;;;;;;;2.10;1.90;;;29.40;62.40;;;;;;6213190;23;20413;-81
2023/06/13 12:16:39;;;;;;;3.55;2.38;;;29.70;61.80;;;;;;6213570;23;20001;-80
2023/06/13 12:19:07;;;;;;;5.97;1.73;;;29.90;59.60;;;;;;6214251;23;20009;-80
2023/06/13 12:21:37;;;;;;;4.25;1.92;;;29.90;59.90;;;;;;6214531;23;20306;-77
2023/06/13 12:24:06;;;;;;;3.28;1.83;;;29.90;59.50;;;;;;6213009;23;20000;-79
2023/06/13 12:26:35;;;;;;;2.90;1.88;;;29.90;59.40;;;;;;6214151;23;20007;-76
2023/06/13 12:29:11;;;;;;;2.38;1.95;;;29.90;58.70;;;;;;6215555;23;20083;-80
2023/06/13 12:31:41;;;;;;;1.83;1.40;;;30.00;59.00;;;;;;6214505;23;20024;-78
2023/06/13 12:34:09;;;;;;;;;;;30.20;58.80;;;;;;6214606;23;20000;-80
2023/06/13 12:36:44;;;;;;;3.08;1.50;;;30.50;56.90;;;;;;6211924;23;19978;-77
2023/06/13 12:39:15;;;;;;;2.10;1.70;;;30.70;57.30;;;;;;6213464;23;20004;-76
2023/06/13 12:41:52;;;;;;;5.10;2.00;;;30.70;57.50;;;;;;6213204;23;20320;-79
2023/06/13 12:44:22;;;;;;;1.88;1.67;;;30.60;57.20;;;;;;6212252;23;20004;-77
2023/06/13 12:46:50;;;;;;;1.67;1.58;;;30.40;57.10;;;;;;6213279;23;20035;-80
2023/06/13 12:49:19;;;;;;;1.83;1.60;;;30.30;57.30;;;;;;6214117;23;20425;-80
2023/06/13 12:51:49;;;;;;;4.05;1.98;;;30.20;57.50;;;;;;6213727;23;19997;-80
2023/06/13 12:54:17;;;;;;;4.40;1.60;;;30.10;57.40;;;;;;6213924;23;20000;-77